Time;durP1;ratioP1;P1;durP2;ratioP2;P2;SDS_P1;SDS_P2;PMS_P1;PMS_P2;Temp;Humidity;BMP_temperature;BMP_pressure;BME280_temperature;BME280_humidity;BME280_pressure;Samples;Min_cycle;Max_cycle;Signal;HPM_P1;HPM_P2
2022/06/11 00:00:15;;;;;;;21.83;3.38;;;;;;;11.94;91.33;100804.16;6082631;23;20010;-76
2022/06/11 00:02:41;;;;;;;25.80;3.67;;;;;;;11.98;91.72;100808.03;6083998;23;20432;-75
2022/06/11 00:05:07;;;;;;;13.93;2.88;;;;;;;11.96;91.44;100812.97;6082204;23;20006;-76
2022/06/11 00:07:34;;;;;;;22.30;2.78;;;;;;;11.97;92.07;100819.25;6108745;23;20099;-76
2022/06/11 00:09:59;;;;;;;15.55;3.75;;;;;;;11.93;91.72;100813.50;6108181;23;20010;-75
2022/06/11 00:12:26;;;;;;;15.63;2.92;;;;;;;11.92;91.64;100819.22;6133829;23;20009;-76
2022/06/11 00:14:54;;;;;;;13.82;2.45;;;;;;;11.86;92.25;100812.88;6135024;23;19998;-77
2022/06/11 00:17:22;;;;;;;28.27;3.70;;;;;;;11.82;92.19;100811.75;6108084;23;20017;-77
2022/06/11 00:19:48;;;;;;;23.15;3.55;;;;;;;11.77;92.20;100815.28;6133305;23;20006;-76
2022/06/11 00:22:16;;;;;;;18.65;3.17;;;;;;;11.69;92.36;100813.03;6134268;23;20006;-73
2022/06/11 00:24:41;;;;;;;21.30;3.13;;;;;;;11.63;92.90;100806.69;6106456;23;20025;-74
2022/06/11 00:27:08;;;;;;;19.88;3.97;;;;;;;11.62;93.55;100813.28;6136454;23;20310;-75
2022/06/11 00:29:36;;;;;;;22.88;3.53;;;;;;;11.64;93.46;100805.63;6136104;23;20424;-75
2022/06/11 00:32:03;;;;;;;18.45;3.45;;;;;;;11.60;93.71;100812.69;6161509;23;20005;-75
2022/06/11 00:34:28;;;;;;;21.83;3.45;;;;;;;11.56;94.21;100811.56;6134144;23;19998;-74
2022/06/11 00:36:54;;;;;;;17.58;2.72;;;;;;;11.51;94.24;100815.09;6161488;23;20061;-75
2022/06/11 00:39:24;;;;;;;16.98;3.25;;;;;;;11.48;93.78;100812.91;6135373;23;20033;-74
2022/06/11 00:41:54;;;;;;;11.95;2.80;;;;;;;11.41;93.70;100815.03;6135727;23;19998;-74
2022/06/11 00:44:20;;;;;;;19.80;3.45;;;;;;;11.42;94.38;100818.59;6162709;23;20504;-75
2022/06/11 00:47:04;;;;;;;14.23;2.63;;;;;;;11.44;94.63;100819.16;6136468;23;20002;-74
2022/06/11 00:49:42;;;;;;;19.20;3.22;;;;;;;11.38;94.10;100822.97;6158881;23;20005;-76
2022/06/11 00:52:22;;;;;;;14.52;2.90;;;;;;;11.34;94.28;100822.63;6133435;23;20021;-74
2022/06/11 00:54:56;;;;;;;15.95;2.70;;;;;;;11.23;94.62;100810.78;6161962;23;20009;-76
2022/06/11 00:57:24;;;;;;;19.10;3.13;;;;;;;11.20;94.31;100814.06;6133967;23;20411;-76
2022/06/11 00:59:55;;;;;;;10.13;2.33;;;;;;;11.20;94.56;100826.91;6158612;23;20076;-75
2022/06/11 01:02:21;;;;;;;14.15;3.05;;;;;;;11.07;94.36;100811.72;6132306;23;20005;-75
2022/06/11 01:05:00;;;;;;;18.88;2.78;;;;;;;11.13;94.78;100817.00;6158504;23;20017;-75
2022/06/11 01:07:41;;;;;;;12.93;2.90;;;;;;;11.11;94.57;100815.59;6134123;23;20005;-77
2022/06/11 01:10:19;;;;;;;14.50;2.75;;;;;;;11.14;94.81;100823.28;6160814;23;20052;-76
2022/06/11 01:13:15;;;;;;;17.77;3.13;;;;;;;11.10;94.28;100824.91;6162258;23;19998;-76
2022/06/11 01:15:52;;;;;;;13.48;2.60;;;;;;;11.03;94.54;100821.56;6138621;23;20456;-76
2022/06/11 01:18:32;;;;;;;18.20;3.13;;;;;;;11.01;94.50;100830.03;6138225;23;20010;-75
2022/06/11 01:21:20;;;;;;;18.02;3.50;;;;;;;10.99;94.74;100832.19;6137491;23;20009;-75
2022/06/11 01:24:18;;;;;;;21.65;3.38;;;;;;;10.98;95.24;100825.06;6135760;23;20214;-74
2022/06/11 01:27:31;;;;;;;20.73;3.33;;;;;;;10.96;95.23;100822.56;6127447;23;20042;-75
2022/06/11 01:30:00;;;;;;;14.43;3.08;;;;;;;10.95;94.99;100822.84;6041071;23;20047;-73
2022/06/11 01:32:45;;;;;;;16.52;2.92;;;;;;;10.94;95.62;100823.94;6121324;23;20036;-74
2022/06/11 01:35:17;;;;;;;17.50;3.10;;;;;;;10.95;95.47;100823.69;6128012;23;20066;-73
2022/06/11 01:37:48;;;;;;;15.32;2.97;;;;;;;10.93;95.41;100823.09;6130779;23;20429;-74
2022/06/11 01:40:26;;;;;;;25.70;3.25;;;;;;;10.94;95.87;100830.22;6131209;23;20009;-77
2022/06/11 01:43:01;;;;;;;17.85;3.28;;;;;;;10.90;95.79;100826.34;6129495;23;20029;-75
2022/06/11 01:45:34;;;;;;;17.30;3.97;;;;;;;10.86;96.14;100833.41;6132210;23;20086;-76
2022/06/11 01:48:03;;;;;;;23.58;3.35;;;;;;;10.80;96.47;100826.25;6130847;23;20402;-77
2022/06/11 01:50:33;;;;;;;22.83;3.28;;;;;;;10.87;96.26;100834.25;6130317;23;20006;-79
2022/06/11 01:52:58;;;;;;;17.70;2.95;;;;;;;10.80;96.81;100823.50;6130499;23;20058;-75
2022/06/11 01:56:00;;;;;;;15.25;3.13;;;;;;;10.80;96.24;100835.28;6131472;23;20069;-76
2022/06/11 01:59:06;;;;;;;27.77;4.25;;;;;;;10.81;96.80;100833.38;6132034;23;20060;-76
2022/06/11 02:01:54;;;;;;;19.13;3.63;;;;;;;10.79;96.60;100836.38;6131731;23;20002;-76
2022/06/11 02:04:37;;;;;;;23.70;3.85;;;;;;;10.79;96.82;100839.13;6126966;23;20069;-75
2022/06/11 02:07:18;;;;;;;17.40;2.97;;;;;;;10.73;97.05;100828.34;6131584;23;20010;-76
2022/06/11 02:10:23;;;;;;;16.15;3.58;;;;;;;10.75;96.79;100842.63;6132211;23;20017;-75
2022/06/11 02:12:55;;;;;;;;;;;;;;;10.70;96.88;100829.69;6046177;23;20003;-75
2022/06/11 02:15:53;;;;;;;20.92;3.38;;;;;;;10.68;96.35;100836.53;6140182;23;19909;-75
2022/06/11 02:18:22;;;;;;;20.83;3.30;;;;;;;10.67;96.41;100840.34;6116146;23;20325;-74
2022/06/11 02:20:53;;;;;;;14.60;3.03;;;;;;;10.61;96.20;100851.19;6131956;23;20017;-75
2022/06/11 02:23:36;;;;;;;23.17;4.38;;;;;;;10.56;96.82;100845.69;6130507;23;20017;-75
2022/06/11 02:26:16;;;;;;;24.17;3.65;;;;;;;10.53;96.72;100845.34;6152167;23;20471;-75
2022/06/11 02:28:45;;;;;;;24.08;3.83;;;;;;;10.48;96.61;100848.84;6163222;23;20002;-76
2022/06/11 02:31:15;;;;;;;19.27;3.33;;;;;;;10.37;96.58;100836.16;6161862;23;20012;-74
2022/06/11 02:33:42;;;;;;;20.10;2.80;;;;;;;10.34;97.10;100842.97;6161065;23;20320;-75
2022/06/11 02:36:11;;;;;;;16.58;2.53;;;;;;;10.33;97.13;100844.00;6159473;23;20006;-76
2022/06/11 02:38:37;;;;;;;17.15;2.95;;;;;;;10.26;97.00;100838.72;6135609;23;19997;-73
2022/06/11 02:41:10;;;;;;;24.40;2.72;;;;;;;10.21;97.22;100844.13;6133855;23;20012;-74
2022/06/11 02:43:36;;;;;;;19.23;3.70;;;;;;;10.17;97.74;100848.44;6160915;23;20065;-74
2022/06/11 02:46:40;;;;;;;22.05;3.42;;;;;;;10.16;97.11;100843.22;6111586;23;20424;-75
2022/06/11 02:48:51;;;;;;;21.75;3.80;;;;;;;10.12;97.54;100841.00;6162769;23;20005;-75
2022/06/11 02:51:19;;;;;;;20.77;3.70;;;;;;;10.09;98.08;100840.66;6162236;23;20002;-75
2022/06/11 02:53:45;;;;;;;18.55;3.53;;;;;;;10.07;98.22;100837.38;6164493;23;19997;-76
2022/06/11 02:56:11;;;;;;;15.20;2.85;;;;;;;10.08;98.26;100844.50;6161103;23;20020;-75
2022/06/11 02:58:36;;;;;;;13.13;2.70;;;;;;;10.04;98.36;100844.16;6162482;23;20796;-76
2022/06/11 03:01:02;;;;;;;15.32;2.83;;;;;;;9.92;98.15;100832.53;6135238;23;20345;-76
2022/06/11 03:03:28;;;;;;;25.15;2.85;;;;;;;9.93;98.25;100851.41;6162388;23;20001;-76
2022/06/11 03:05:53;;;;;;;30.70;3.60;;;;;;;9.89;98.45;100850.25;6137880;23;20350;-77
2022/06/11 03:08:19;;;;;;;17.63;3.47;;;;;;;9.86;99.02;100853.50;6136757;23;20012;-77
2022/06/11 03:10:44;;;;;;;24.83;3.40;;;;;;;9.82;98.98;100848.78;6163973;23;20009;-76
2022/06/11 03:13:10;;;;;;;21.27;3.05;;;;;;;9.78;98.89;100848.44;6137976;23;20013;-75
2022/06/11 03:15:35;;;;;;;23.50;4.03;;;;;;;9.77;99.46;100858.53;6137904;23;20421;-76
2022/06/11 03:18:01;;;;;;;16.23;2.65;;;;;;;9.72;99.29;100860.38;6140340;23;20005;-75
2022/06/11 03:20:31;;;;;;;17.75;2.95;;;;;;;9.72;98.99;100869.38;6136338;23;20006;-75
2022/06/11 03:22:57;;;;;;;14.73;3.30;;;;;;;9.67;99.47;100860.31;6137037;23;20009;-74
2022/06/11 03:25:22;;;;;;;19.17;3.08;;;;;;;9.67;99.93;100872.03;6130322;23;20020;-75
2022/06/11 03:27:48;;;;;;;15.73;2.50;;;;;;;9.61;99.91;100862.94;6134170;23;20037;-75
2022/06/11 03:30:15;;;;;;;18.02;2.97;;;;;;;9.61;99.64;100876.59;6131483;23;20010;-75
2022/06/11 03:32:41;;;;;;;10.77;2.30;;;;;;;9.57;99.47;100871.88;6132107;23;20353;-75
2022/06/11 03:35:08;;;;;;;12.23;3.28;;;;;;;9.56;99.78;100873.81;6107025;23;20065;-74
2022/06/11 03:37:33;;;;;;;20.17;3.42;;;;;;;9.53;99.61;100870.72;6132660;23;20033;-75
2022/06/11 03:39:59;;;;;;;12.27;2.90;;;;;;;9.54;99.58;100878.66;6131409;23;20005;-75
2022/06/11 03:42:25;;;;;;;18.52;3.45;;;;;;;9.56;99.87;100875.69;6108689;23;20013;-76
2022/06/11 03:44:50;;;;;;;16.73;2.92;;;;;;;9.57;99.50;100878.16;6108848;23;20017;-75
2022/06/11 03:47:16;;;;;;;17.00;2.70;;;;;;;9.55;99.82;100872.13;6108464;23;20006;-75
2022/06/11 03:49:42;;;;;;;16.75;3.92;;;;;;;9.61;100.00;100882.06;6132264;23;20029;-76
2022/06/11 03:52:09;;;;;;;16.27;3.13;;;;;;;9.61;99.30;100882.06;6133498;23;20636;-77
2022/06/11 03:54:35;;;;;;;13.23;2.97;;;;;;;9.55;99.81;100874.88;6132020;23;20002;-76
2022/06/11 03:57:00;;;;;;;17.88;3.45;;;;;;;9.59;99.56;100870.56;6133071;23;20085;-77
2022/06/11 03:59:26;;;;;;;19.52;2.72;;;;;;;9.56;99.65;100870.22;6107590;23;20085;-77
2022/06/11 04:01:53;;;;;;;20.15;3.05;;;;;;;9.67;99.49;100890.34;6132490;23;20044;-75
2022/06/11 04:04:20;;;;;;;17.13;3.08;;;;;;;9.67;99.38;100882.16;6109121;23;20017;-75
2022/06/11 04:06:56;;;;;;;23.60;3.15;;;;;;;9.71;99.14;100889.59;6132641;23;20060;-74
2022/06/11 04:09:26;;;;;;;16.77;2.83;;;;;;;9.69;99.29;100890.91;6134509;23;20008;-74
2022/06/11 04:11:51;;;;;;;17.75;2.38;;;;;;;9.70;98.85;100889.84;6133597;23;20006;-75
2022/06/11 04:14:17;;;;;;;25.15;2.92;;;;;;;9.74;99.54;100888.28;6107788;23;20002;-77
2022/06/11 04:16:46;;;;;;;22.08;3.15;;;;;;;9.82;99.38;100901.50;6107075;23;20093;-76
2022/06/11 04:19:16;;;;;;;25.13;3.45;;;;;;;9.85;99.19;100895.53;6132153;23;20006;-75
2022/06/11 04:21:42;;;;;;;25.50;3.60;;;;;;;9.92;99.53;100898.91;6132783;23;20046;-76
2022/06/11 04:24:08;;;;;;;21.27;2.70;;;;;;;9.91;99.14;100897.25;6133440;23;20065;-76
2022/06/11 04:26:40;;;;;;;14.10;2.85;;;;;;;9.98;98.86;100913.47;6131851;23;20017;-76
2022/06/11 04:29:09;;;;;;;15.32;3.17;;;;;;;10.01;99.14;100909.44;6134180;23;20073;-75
2022/06/11 04:31:35;;;;;;;22.55;3.25;;;;;;;10.04;98.83;100907.00;6133253;23;20006;-74
2022/06/11 04:34:01;;;;;;;15.07;2.50;;;;;;;10.16;98.86;100917.84;6132739;23;20065;-74
2022/06/11 04:36:30;;;;;;;15.73;2.63;;;;;;;10.25;98.53;100923.69;6131992;23;20002;-74
2022/06/11 04:38:55;;;;;;;15.80;2.58;;;;;;;10.29;98.32;100911.19;6107288;23;20009;-74
2022/06/11 04:41:22;;;;;;;23.48;3.25;;;;;;;10.42;98.23;100915.50;6128178;23;20505;-75
2022/06/11 04:43:47;;;;;;;12.00;2.53;;;;;;;10.51;97.76;100922.19;6132377;23;20010;-75
2022/06/11 04:46:14;;;;;;;23.23;3.20;;;;;;;10.57;97.24;100923.91;6129811;23;20653;-77
2022/06/11 04:48:51;;;;;;;;;;;;;;;;;;;;;
2022/06/11 04:51:17;;;;;;;30.63;3.30;;;;;;;10.68;96.35;100924.88;6132747;23;20036;-77
2022/06/11 04:53:44;;;;;;;24.05;3.85;;;;;;;10.73;96.39;100915.88;6132070;23;20345;-77
2022/06/11 04:56:14;;;;;;;24.77;3.90;;;;;;;10.85;95.97;100930.28;6132449;23;20013;-76
2022/06/11 04:58:40;;;;;;;15.98;2.95;;;;;;;10.94;95.33;100911.50;6132491;23;20016;-73
2022/06/11 05:01:07;;;;;;;19.73;3.35;;;;;;;11.00;94.71;100922.22;6131470;23;20104;-76
2022/06/11 05:03:33;;;;;;;14.52;3.10;;;;;;;11.10;94.46;100926.19;6128963;23;20014;-74
2022/06/11 05:05:58;;;;;;;21.10;2.75;;;;;;;11.16;93.97;100925.97;6105930;23;20002;-75
2022/06/11 05:08:24;;;;;;;18.45;2.90;;;;;;;11.25;94.16;100940.00;6132031;23;20074;-74
2022/06/11 05:10:49;;;;;;;15.63;2.45;;;;;;;11.30;93.91;100940.06;6131506;23;20010;-75
2022/06/11 05:13:15;;;;;;;22.20;3.00;;;;;;;11.32;93.13;100932.41;6131967;23;20010;-76
2022/06/11 05:15:45;;;;;;;25.08;3.50;;;;;;;11.42;93.08;100936.34;6108234;23;20061;-74
2022/06/11 05:18:16;;;;;;;14.75;2.97;;;;;;;11.54;92.51;100945.22;6131093;23;20005;-75
2022/06/11 05:20:42;;;;;;;15.18;2.67;;;;;;;11.61;92.04;100948.59;6132408;23;20033;-75
2022/06/11 05:23:08;;;;;;;14.65;2.38;;;;;;;11.70;91.64;100927.03;6132219;23;20417;-76
2022/06/11 05:25:36;;;;;;;21.27;3.90;;;;;;;11.79;91.63;100927.38;6120510;23;20024;-75
2022/06/11 05:28:02;;;;;;;19.83;2.67;;;;;;;11.89;90.68;100927.44;6136332;23;20005;-74
2022/06/11 05:30:30;;;;;;;20.77;3.08;;;;;;;12.00;90.21;100929.19;6161748;23;20021;-73
2022/06/11 05:32:57;;;;;;;18.45;3.00;;;;;;;12.08;90.15;100941.59;6161202;23;19998;-76
2022/06/11 05:35:26;;;;;;;24.90;2.80;;;;;;;12.15;90.14;100941.34;6135680;23;19998;-74
2022/06/11 05:37:55;;;;;;;12.07;2.33;;;;;;;12.18;89.46;100935.34;6161658;23;20005;-74
2022/06/11 05:40:24;;;;;;;12.70;2.78;;;;;;;12.26;89.11;100940.31;6135037;23;20009;-73
2022/06/11 05:42:50;;;;;;;11.73;2.67;;;;;;;12.29;88.58;100934.31;6161547;23;20060;-75
2022/06/11 05:45:18;;;;;;;16.35;3.15;;;;;;;12.37;89.14;100942.03;6135003;23;20053;-74
2022/06/11 05:47:44;;;;;;;20.77;2.83;;;;;;;12.43;88.71;100942.09;6133537;23;20009;-73
2022/06/11 05:50:13;;;;;;;11.35;2.58;;;;;;;12.48;88.71;100944.84;6135707;23;20014;-72
2022/06/11 05:52:43;;;;;;;27.00;3.58;;;;;;;12.54;87.85;100946.50;6136387;23;20015;-75
2022/06/11 05:55:13;;;;;;;18.63;2.72;;;;;;;12.62;87.71;100962.47;6161504;23;20009;-74
2022/06/11 05:57:39;;;;;;;17.30;2.83;;;;;;;12.70;87.73;100961.13;6136035;23;20012;-75
2022/06/11 06:00:08;;;;;;;16.75;3.33;;;;;;;12.77;86.92;100963.66;6113394;23;20010;-74
2022/06/11 06:02:34;;;;;;;16.05;2.55;;;;;;;12.80;87.00;100963.09;6134974;23;20008;-75
2022/06/11 06:04:59;;;;;;;21.33;4.03;;;;;;;12.93;87.04;100968.09;6111397;23;20006;-76
2022/06/11 06:07:25;;;;;;;15.70;2.80;;;;;;;12.94;86.46;100964.28;6111082;23;20017;-76
2022/06/11 06:09:50;;;;;;;20.55;2.95;;;;;;;13.03;86.45;100959.91;6112286;23;20006;-74
2022/06/11 06:12:17;;;;;;;20.27;3.17;;;;;;;13.21;85.31;100963.25;6135672;23;20087;-75
2022/06/11 06:14:50;;;;;;;16.33;3.08;;;;;;;13.14;85.49;100947.03;6133835;23;20017;-77
2022/06/11 06:17:16;;;;;;;12.98;2.63;;;;;;;13.27;85.88;100959.41;6159429;23;20010;-76
2022/06/11 06:19:41;;;;;;;15.25;2.53;;;;;;;13.36;85.70;100977.06;6134736;23;20013;-75
2022/06/11 06:22:09;;;;;;;25.83;3.30;;;;;;;13.39;85.24;100971.03;6135154;23;20001;-75
2022/06/11 06:24:35;;;;;;;18.77;2.65;;;;;;;13.51;85.74;100972.69;6109697;23;20060;-76
2022/06/11 06:27:00;;;;;;;22.15;3.08;;;;;;;13.57;84.52;100971.59;6110292;23;20013;-75
2022/06/11 06:29:27;;;;;;;18.98;3.13;;;;;;;13.64;84.56;100983.16;6086661;23;20069;-76
2022/06/11 06:31:52;;;;;;;21.92;2.70;;;;;;;13.75;84.73;100983.97;6157484;23;20017;-76
2022/06/11 06:34:18;;;;;;;16.33;3.35;;;;;;;13.85;84.30;100972.97;6108512;23;20029;-75
2022/06/11 06:36:43;;;;;;;14.35;2.75;;;;;;;13.94;83.07;100984.25;6131991;23;20021;-75
2022/06/11 06:39:10;;;;;;;17.92;4.22;;;;;;;13.99;83.13;100995.28;6133509;23;20341;-74
2022/06/11 06:41:35;;;;;;;21.85;2.70;;;;;;;14.03;81.65;100996.38;6159288;23;20010;-76
2022/06/11 06:44:01;;;;;;;25.00;3.45;;;;;;;14.05;81.84;100988.66;6133293;23;20080;-74
2022/06/11 06:46:26;;;;;;;22.02;3.17;;;;;;;14.24;81.96;100996.34;6158612;23;20010;-74
2022/06/11 06:48:52;;;;;;;18.10;2.60;;;;;;;14.39;81.13;100988.06;6132653;23;20066;-74
2022/06/11 06:51:18;;;;;;;10.18;2.25;;;;;;;14.44;80.20;100982.56;6160332;23;20064;-74
2022/06/11 06:53:45;;;;;;;22.67;3.58;;;;;;;14.54;80.18;100989.13;6158398;23;20009;-73
2022/06/11 06:56:11;;;;;;;25.83;3.88;;;;;;;14.65;80.45;100985.31;6159308;23;20060;-74
2022/06/11 06:58:37;;;;;;;14.55;3.22;;;;;;;14.80;79.73;100999.00;6132540;23;20408;-75
2022/06/11 07:01:03;;;;;;;16.92;3.45;;;;;;;14.91;78.75;100993.44;6133965;23;20187;-75
2022/06/11 07:03:32;;;;;;;27.98;4.00;;;;;;;15.11;77.47;100978.78;6133664;23;20308;-73
2022/06/11 07:05:57;;;;;;;14.82;3.33;;;;;;;15.19;76.20;100987.28;6157785;23;20097;-73
2022/06/11 07:08:23;;;;;;;16.92;2.58;;;;;;;15.06;76.26;100989.84;6134963;23;20016;-75
2022/06/11 07:10:51;;;;;;;23.92;3.38;;;;;;;14.95;76.23;101000.91;6132335;23;20317;-73
2022/06/11 07:13:20;;;;;;;26.63;4.40;;;;;;;14.88;77.49;100983.00;6158003;23;20032;-72
2022/06/11 07:15:48;;;;;;;21.88;3.70;;;;;;;14.97;77.13;100989.59;6131183;23;20610;-72
2022/06/11 07:18:20;;;;;;;17.40;2.90;;;;;;;15.19;76.12;100990.03;6134971;23;20016;-74
2022/06/11 07:20:51;;;;;;;17.95;3.22;;;;;;;15.31;75.38;100983.34;6159419;23;20009;-75
2022/06/11 07:23:35;;;;;;;16.20;2.58;;;;;;;15.25;75.24;100981.75;6133301;23;20021;-73
2022/06/11 07:26:03;;;;;;;10.73;2.67;;;;;;;15.65;75.06;100990.84;6155686;23;20333;-70
2022/06/11 07:28:45;;;;;;;17.77;3.00;;;;;;;16.28;72.51;100997.53;6152057;23;20009;-74
2022/06/11 07:31:11;;;;;;;27.77;2.55;;;;;;;16.51;69.42;100984.91;6155909;23;20008;-74
2022/06/11 07:33:41;;;;;;;17.98;3.60;;;;;;;16.60;69.90;100971.28;6105271;23;20014;-73
2022/06/11 07:36:06;;;;;;;14.38;2.22;;;;;;;16.74;67.95;100989.59;6129173;23;20037;-75
2022/06/11 07:38:32;;;;;;;14.18;3.03;;;;;;;16.91;67.41;100986.41;6127663;23;20045;-76
2022/06/11 07:44:49;;;;;;;19.88;2.50;;;;;;;18.09;62.86;100983.03;6160404;23;20036;-74
2022/06/11 07:47:53;;;;;;;21.85;2.22;;;;;;;18.52;60.63;100985.59;6133916;23;20001;-73
2022/06/11 07:50:02;;;;;;;15.10;2.38;;;;;;;18.33;59.58;100971.81;6138217;23;20017;-74
2022/06/11 07:52:28;;;;;;;17.65;2.42;;;;;;;18.24;59.33;100985.56;6109662;23;20041;-75
2022/06/11 07:54:53;;;;;;;14.13;3.05;;;;;;;18.17;60.28;101001.72;6133750;23;20006;-74
2022/06/11 08:04:34;;;;;;;23.13;2.50;;;;;;;19.16;57.54;101012.63;6162386;23;20324;-76
2022/06/11 08:07:06;;;;;;;15.98;2.05;;;;;;;19.22;57.03;101008.59;6109930;23;20487;-74
2022/06/11 08:09:32;;;;;;;11.85;3.08;;;;;;;19.15;56.86;101019.28;6135737;23;20080;-76
2022/06/11 08:12:00;;;;;;;17.42;2.85;;;;;;;19.00;56.61;101024.00;6136108;23;20002;-77
2022/06/11 08:14:25;;;;;;;16.13;2.33;;;;;;;18.90;56.30;101018.69;6136153;23;20460;-76
2022/06/11 08:17:05;;;;;;;;;;;;;;;;;;;;;
2022/06/11 08:23:08;;;;;;;;;;;;;;;;;;;;;
2022/06/11 08:25:34;;;;;;;8.95;1.90;;;;;;;18.58;57.77;101027.88;6138069;23;20065;-74
2022/06/11 08:28:00;;;;;;;17.17;2.10;;;;;;;18.65;55.95;101019.97;6135016;23;20013;-76
2022/06/11 08:30:28;;;;;;;9.98;2.22;;;;;;;18.60;56.33;101007.06;6135067;23;20048;-73
2022/06/11 08:32:53;;;;;;;9.35;2.92;;;;;;;18.87;56.30;101001.88;6110457;23;20010;-74
2022/06/11 08:35:23;;;;;;;13.20;2.67;;;;;;;18.81;56.45;101004.69;6135418;23;20033;-75
2022/06/11 08:37:52;;;;;;;18.58;2.60;;;;;;;18.76;56.80;101001.19;6133030;23;20016;-77
2022/06/11 08:40:32;;;;;;;18.13;2.67;;;;;;;19.05;55.22;100998.13;6112328;23;20005;-76
2022/06/11 08:43:18;;;;;;;10.18;2.58;;;;;;;19.23;54.95;100999.16;6134230;23;20400;-75
2022/06/11 08:45:44;;;;;;;11.05;2.03;;;;;;;19.80;52.29;100989.53;6133337;23;20036;-75
2022/06/11 08:48:33;;;;;;;15.07;2.30;;;;;;;20.09;51.47;100991.88;6133031;23;20005;-75
2022/06/11 08:51:20;;;;;;;13.23;2.22;;;;;;;20.07;50.16;101007.22;6113428;23;20056;-74
2022/06/11 08:53:48;;;;;;;15.98;2.00;;;;;;;19.98;50.17;100994.09;6160490;23;20012;-75
2022/06/11 08:56:33;;;;;;;7.60;1.67;;;;;;;19.85;51.55;101003.31;6132275;23;20009;-76
2022/06/11 08:59:28;;;;;;;8.75;1.92;;;;;;;19.84;51.36;101012.75;6159392;23;20023;-76
2022/06/11 09:02:36;;;;;;;8.43;1.85;;;;;;;20.18;50.19;101005.81;6134338;23;20016;-75
2022/06/11 09:05:40;;;;;;;8.48;1.50;;;;;;;20.17;49.15;101015.28;6124363;23;20010;-76
2022/06/11 09:08:23;;;;;;;11.43;1.55;;;;;;;20.26;49.31;101018.94;6136002;23;20009;-75
2022/06/11 09:11:04;;;;;;;6.77;1.47;;;;;;;20.55;48.76;101015.66;6134470;23;20009;-77
2022/06/11 09:13:47;;;;;;;12.35;2.28;;;;;;;20.48;47.95;101003.38;6135377;23;20250;-77
2022/06/11 09:16:28;;;;;;;7.63;1.52;;;;;;;20.34;48.55;101009.00;6133391;23;20013;-76
2022/06/11 09:19:19;;;;;;;10.27;1.83;;;;;;;20.25;49.08;101016.47;6161917;23;20002;-77
2022/06/11 09:22:03;;;;;;;16.67;1.90;;;;;;;20.32;48.31;100995.44;6133895;23;20128;-77
2022/06/11 09:24:28;;;;;;;;;;;;;;;20.57;47.68;101001.44;6135312;23;20040;-76
2022/06/11 09:27:05;;;;;;;9.77;1.77;;;;;;;20.39;48.25;101006.13;6135210;23;19916;-77
2022/06/11 09:29:47;;;;;;;9.63;1.98;;;;;;;20.24;49.11;101004.56;6136203;23;20071;-76
2022/06/11 09:32:19;;;;;;;10.60;1.63;;;;;;;20.50;48.16;101006.66;6135833;23;20075;-73
2022/06/11 09:35:17;;;;;;;9.20;2.17;;;;;;;20.59;47.81;101015.88;6163410;23;20024;-77
2022/06/11 09:37:51;;;;;;;5.82;1.38;;;;;;;20.38;47.72;101013.63;6136638;23;20340;-77
2022/06/11 09:40:44;;;;;;;10.20;1.88;;;;;;;20.28;48.15;101011.13;6134404;23;20043;-77
2022/06/11 09:43:28;;;;;;;10.10;1.58;;;;;;;20.45;47.50;101026.25;6160290;23;20052;-75
2022/06/11 09:46:13;;;;;;;14.43;2.25;;;;;;;20.29;46.12;101012.75;6134613;23;20023;-76
2022/06/11 09:48:41;;;;;;;7.50;1.50;;;;;;;20.63;46.17;101021.59;6161582;23;20029;-75
2022/06/11 09:51:24;;;;;;;13.05;2.58;;;;;;;20.94;46.49;101021.59;6135330;23;20080;-75
2022/06/11 09:54:16;;;;;;;8.07;1.85;;;;;;;21.36;46.11;101022.03;6134796;23;20009;-78
2022/06/11 09:57:07;;;;;;;5.15;1.65;;;;;;;21.27;44.76;101012.81;6160773;23;20037;-78
2022/06/11 09:59:41;;;;;;;7.00;1.73;;;;;;;21.02;45.63;101022.75;6115177;23;20041;-77
2022/06/11 10:02:07;;;;;;;13.23;2.30;;;;;;;21.20;45.16;101020.81;6135022;23;20005;-75
2022/06/11 10:04:42;;;;;;;10.88;1.35;;;;;;;21.40;44.95;101028.56;6160313;23;20005;-74
2022/06/11 10:07:16;;;;;;;8.00;1.60;;;;;;;21.97;43.17;101007.31;6136798;23;20013;-74
2022/06/11 10:09:59;;;;;;;10.70;1.60;;;;;;;22.84;40.92;101018.25;6136458;23;20092;-76
2022/06/11 10:12:36;;;;;;;14.43;2.00;;;;;;;24.64;38.14;101027.03;6136168;23;20004;-75
2022/06/11 10:15:31;;;;;;;9.88;1.90;;;;;;;26.36;35.57;101027.84;6137201;23;20041;-73
2022/06/11 10:18:15;;;;;;;;;;;;;;;25.77;36.06;101018.16;6123770;23;20399;-78
2022/06/11 10:20:48;;;;;;;11.85;1.65;;;;;;;26.71;33.70;101015.13;6137012;23;19986;-75
2022/06/11 10:23:32;;;;;;;5.55;1.60;;;;;;;27.10;32.98;101026.50;6134841;23;20009;-76
2022/06/11 10:27:04;;;;;;;;;;;;;;;;;;;;;
2022/06/11 10:29:26;;;;;;;;;;;;;;;27.00;32.71;101023.09;6152306;23;20016;-77
2022/06/11 10:32:13;;;;;;;11.35;2.00;;;;;;;28.45;32.01;101020.53;6160199;23;19904;-75
2022/06/11 10:34:49;;;;;;;8.10;1.92;;;;;;;27.29;31.83;101012.53;6138079;23;20001;-74
2022/06/11 10:37:24;;;;;;;14.13;1.98;;;;;;;26.61;33.74;101028.50;6161809;23;20006;-75
2022/06/11 10:39:58;;;;;;;6.68;1.95;;;;;;;25.40;35.26;101009.88;6135770;23;20016;-74
2022/06/11 10:42:27;;;;;;;12.90;3.08;;;;;;;24.81;36.92;101025.16;6136333;23;20001;-76
2022/06/11 10:44:54;;;;;;;7.97;1.70;;;;;;;27.42;33.29;101018.06;6137242;23;20001;-75
2022/06/11 10:47:28;;;;;;;11.68;2.15;;;;;;;29.20;30.05;101033.03;6161711;23;20545;-75
2022/06/11 10:50:20;;;;;;;9.32;1.65;;;;;;;30.84;26.42;101023.31;6136734;23;20087;-76
2022/06/11 10:52:57;;;;;;;12.48;2.05;;;;;;;28.50;29.59;101031.47;6137090;23;20005;-75
2022/06/11 10:55:44;;;;;;;8.65;1.30;;;;;;;28.32;30.93;101017.91;6136132;23;20017;-75
2022/06/11 10:58:35;;;;;;;5.40;1.15;;;;;;;30.83;28.39;101035.00;6137269;23;20005;-76
2022/06/11 11:01:06;;;;;;;7.57;1.48;;;;;;;34.95;22.00;101026.84;6136058;23;20002;-76
2022/06/11 11:03:46;;;;;;;12.25;1.92;;;;;;;33.60;22.66;101023.59;6162712;23;20001;-74
2022/06/11 11:06:29;;;;;;;10.90;1.80;;;;;;;32.19;24.30;101018.81;6162850;23;20044;-75
2022/06/11 11:09:00;;;;;;;8.77;1.58;;;;;;;29.68;27.54;101015.63;6136144;23;20009;-75
2022/06/11 11:11:27;;;;;;;6.55;1.80;;;;;;;27.46;31.02;101000.09;6163053;23;20029;-75
2022/06/11 11:14:07;;;;;;;6.43;1.45;;;;;;;26.43;32.83;101004.78;6158897;23;20016;-74
2022/06/11 11:16:36;;;;;;;5.78;1.27;;;;;;;30.66;26.01;101013.88;6134880;23;20337;-75
2022/06/11 11:19:12;;;;;;;6.57;1.63;;;;;;;34.35;22.29;101011.09;6134960;23;20008;-74
2022/06/11 11:22:00;;;;;;;11.02;1.98;;;;;;;36.55;18.92;101032.19;6134819;23;20000;-75
2022/06/11 11:24:34;;;;;;;7.28;2.03;;;;;;;37.65;17.87;101015.53;6140102;23;20013;-74
2022/06/11 11:28:10;;;;;;;;;;;;;;;34.83;20.13;101027.38;6135356;23;20017;-74
2022/06/11 11:30:31;;;;;;;4.32;1.23;;;;;;;31.58;24.28;101017.78;6129249;23;19939;-74
2022/06/11 11:33:20;;;;;;;7.55;1.85;;;;;;;28.82;28.18;101017.97;6136855;23;20424;-74
2022/06/11 11:35:46;;;;;;;10.05;1.95;;;;;;;28.21;30.35;100994.38;6136419;23;20016;-74
2022/06/11 11:38:14;;;;;;;7.63;2.25;;;;;;;31.89;25.43;101015.47;6111359;23;20332;-75
2022/06/11 11:41:01;;;;;;;11.80;1.92;;;;;;;34.18;22.41;101018.47;6137616;23;20019;-74
2022/06/11 11:43:42;;;;;;;5.05;1.45;;;;;;;35.96;20.25;101008.63;6138035;23;20412;-76
2022/06/11 11:46:32;;;;;;;6.97;1.77;;;;;;;37.35;19.22;101026.75;6137835;23;20077;-75
2022/06/11 11:49:00;;;;;;;6.55;1.67;;;;;;;35.91;19.78;101014.81;6136049;23;20013;-74
2022/06/11 11:51:32;;;;;;;6.03;1.70;;;;;;;36.20;19.34;101008.72;6164161;23;20011;-73
2022/06/11 11:54:05;;;;;;;5.28;1.20;;;;;;;39.04;16.72;101027.75;6136943;23;20084;-75
2022/06/11 11:56:41;;;;;;;10.93;2.28;;;;;;;40.52;15.26;101026.25;6162656;23;20005;-75
2022/06/11 11:59:20;;;;;;;7.00;1.15;;;;;;;41.15;14.15;101024.50;6136453;23;20005;-76
2022/06/11 12:01:48;;;;;;;12.05;2.03;;;;;;;42.28;12.90;101032.56;6162323;23;20005;-76
2022/06/11 12:04:25;;;;;;;4.85;1.50;;;;;;;37.91;16.73;101008.06;6163093;23;20081;-74
2022/06/11 12:07:06;;;;;;;8.57;1.55;;;;;;;33.16;21.80;100989.72;6135798;23;20001;-74